Time;durP1;ratioP1;P1;durP2;ratioP2;P2;SDS_P1;SDS_P2;PMS_P1;PMS_P2;Temp;Humidity;BMP_temperature;BMP_pressure;BME280_temperature;BME280_humidity;BME280_pressure;Samples;Min_cycle;Max_cycle;Signal;HPM_P1;HPM_P2
2023/08/01 00:00:09;;;;;;;11.75;3.10;;;16.50;99.90;;;;;;5032785;28;20049;-83
2023/08/01 00:02:36;;;;;;;12.45;2.70;;;16.50;99.90;;;;;;5048812;28;20073;-82
2023/08/01 00:05:03;;;;;;;10.45;2.92;;;16.40;99.90;;;;;;5048858;28;20083;-82
2023/08/01 00:07:29;;;;;;;17.55;3.13;;;16.50;99.90;;;;;;5048670;28;20041;-82
2023/08/01 00:09:56;;;;;;;10.38;3.42;;;16.40;99.90;;;;;;5048901;28;20041;-82
2023/08/01 00:12:24;;;;;;;12.13;3.25;;;16.40;99.90;;;;;;5048135;28;20049;-82
2023/08/01 00:14:51;;;;;;;8.48;2.65;;;16.40;99.90;;;;;;5065033;28;20133;-82
2023/08/01 00:17:18;;;;;;;14.32;3.10;;;16.40;99.90;;;;;;5015910;28;20557;-82
2023/08/01 00:19:48;;;;;;;10.10;2.80;;;16.40;99.90;;;;;;5051921;28;20072;-82
2023/08/01 00:22:14;;;;;;;10.55;3.58;;;16.40;99.90;;;;;;5020107;28;20041;-82
2023/08/01 00:24:41;;;;;;;9.23;2.80;;;16.30;99.90;;;;;;5019700;28;20042;-82
2023/08/01 00:27:10;;;;;;;9.43;2.70;;;16.30;99.90;;;;;;5019843;28;20078;-82
2023/08/01 00:29:36;;;;;;;7.57;3.20;;;16.30;99.90;;;;;;5020003;28;20077;-82
2023/08/01 00:32:04;;;;;;;10.57;2.95;;;16.30;99.90;;;;;;5020586;28;20512;-83
2023/08/01 00:34:31;;;;;;;8.65;3.30;;;16.30;99.90;;;;;;5019902;28;20033;-82
2023/08/01 00:36:58;;;;;;;9.77;2.70;;;16.20;99.90;;;;;;5019908;28;20052;-82
2023/08/01 00:39:24;;;;;;;12.15;3.40;;;16.30;99.90;;;;;;5036192;28;20037;-82
2023/08/01 00:41:51;;;;;;;12.57;2.90;;;16.30;99.90;;;;;;5019893;28;20052;-82
2023/08/01 00:44:18;;;;;;;11.30;3.15;;;16.20;99.90;;;;;;5019790;28;20558;-82
2023/08/01 00:46:45;;;;;;;10.32;3.30;;;16.20;99.90;;;;;;5019722;28;20139;-82
2023/08/01 00:49:13;;;;;;;9.63;3.25;;;16.20;99.90;;;;;;5019972;28;20044;-83
2023/08/01 00:51:41;;;;;;;15.60;3.65;;;16.20;99.90;;;;;;5052052;28;20128;-83
2023/08/01 00:54:08;;;;;;;10.48;3.40;;;16.20;99.90;;;;;;5020134;28;20095;-82
2023/08/01 00:56:36;;;;;;;11.35;3.88;;;16.20;99.90;;;;;;5035645;28;20053;-82
2023/08/01 00:59:03;;;;;;;8.85;3.50;;;16.20;99.90;;;;;;5020034;28;20045;-83
2023/08/01 01:01:29;;;;;;;11.45;3.70;;;16.20;99.90;;;;;;5035422;28;20041;-82
2023/08/01 01:03:56;;;;;;;11.68;4.25;;;16.20;99.90;;;;;;5052073;28;20056;-83
2023/08/01 01:06:38;;;;;;;15.35;4.35;;;16.20;99.90;;;;;;5019734;28;20033;-83
2023/08/01 01:09:17;;;;;;;13.00;4.25;;;16.20;99.90;;;;;;5052010;28;20041;-82
2023/08/01 01:11:45;;;;;;;10.60;3.72;;;16.20;99.90;;;;;;5051548;28;20085;-82
2023/08/01 01:14:12;;;;;;;10.35;3.92;;;16.20;99.90;;;;;;5068559;28;20465;-82
2023/08/01 01:16:39;;;;;;;10.50;3.97;;;16.20;99.90;;;;;;5035465;28;20045;-82
2023/08/01 01:19:08;;;;;;;10.93;3.85;;;16.10;99.90;;;;;;5051793;28;20456;-82
2023/08/01 01:21:37;;;;;;;9.80;3.40;;;16.10;99.90;;;;;;5051871;28;20045;-82
2023/08/01 01:24:06;;;;;;;10.40;3.80;;;16.10;99.90;;;;;;5051572;28;20076;-82
2023/08/01 01:26:34;;;;;;;10.98;3.50;;;16.10;99.90;;;;;;5035244;28;20046;-82
2023/08/01 01:29:02;;;;;;;11.18;4.05;;;16.00;99.90;;;;;;5051572;28;20137;-82
2023/08/01 01:31:30;;;;;;;11.57;3.35;;;16.00;99.90;;;;;;5050608;28;20071;-82
2023/08/01 01:33:57;;;;;;;6.75;3.17;;;15.90;99.90;;;;;;5051912;28;20101;-82
2023/08/01 01:36:24;;;;;;;13.05;2.70;;;16.00;99.90;;;;;;5051374;28;20107;-82
2023/08/01 01:38:51;;;;;;;6.38;2.72;;;15.80;99.90;;;;;;5018297;28;20037;-82
2023/08/01 01:41:17;;;;;;;10.77;3.00;;;15.80;99.90;;;;;;5018650;28;20041;-82
2023/08/01 01:43:44;;;;;;;5.53;2.70;;;15.80;99.90;;;;;;5051201;28;20568;-82
2023/08/01 01:46:11;;;;;;;7.60;2.95;;;15.80;99.90;;;;;;5051233;28;20087;-82
2023/08/01 01:48:37;;;;;;;9.05;3.00;;;15.80;99.90;;;;;;5018127;28;20481;-83
2023/08/01 01:51:04;;;;;;;6.13;3.05;;;15.70;99.90;;;;;;5051120;28;20509;-82
2023/08/01 01:53:31;;;;;;;6.93;2.47;;;15.70;99.90;;;;;;5018376;28;20513;-82
2023/08/01 01:55:58;;;;;;;8.25;2.92;;;15.70;99.90;;;;;;5018896;28;20091;-82
2023/08/01 01:58:24;;;;;;;7.53;2.80;;;15.70;99.90;;;;;;5018534;28;20041;-82
2023/08/01 02:00:51;;;;;;;7.65;2.90;;;15.70;99.90;;;;;;5018255;28;20041;-82
2023/08/01 02:03:18;;;;;;;6.63;2.70;;;15.60;99.90;;;;;;5050490;28;20041;-82
2023/08/01 02:05:45;;;;;;;8.20;3.38;;;15.60;99.90;;;;;;5018432;28;20513;-82
2023/08/01 02:08:11;;;;;;;8.00;2.80;;;15.60;99.90;;;;;;5018609;28;20108;-82
2023/08/01 02:10:38;;;;;;;5.75;2.78;;;15.50;99.90;;;;;;5050524;28;20124;-82
2023/08/01 02:13:08;;;;;;;6.63;2.35;;;15.50;99.90;;;;;;5050770;28;20057;-82
2023/08/01 02:15:35;;;;;;;8.93;2.67;;;15.50;99.90;;;;;;5050691;28;20123;-82
2023/08/01 02:18:01;;;;;;;6.32;2.55;;;15.50;99.90;;;;;;5050844;28;20131;-82
2023/08/01 02:20:29;;;;;;;6.03;2.70;;;15.50;99.90;;;;;;5033938;28;20033;-82
2023/08/01 02:22:55;;;;;;;8.88;2.95;;;15.50;99.90;;;;;;5018025;28;20071;-82
2023/08/01 02:25:22;;;;;;;6.32;2.70;;;15.40;99.90;;;;;;5050864;28;20045;-82
2023/08/01 02:27:48;;;;;;;7.60;2.70;;;15.40;99.90;;;;;;5017981;28;20047;-82
2023/08/01 02:30:15;;;;;;;8.60;2.78;;;15.40;99.90;;;;;;5017931;28;20053;-82
2023/08/01 02:32:42;;;;;;;6.38;2.75;;;15.30;99.90;;;;;;5033812;28;20042;-82
2023/08/01 02:35:09;;;;;;;13.48;2.53;;;15.30;99.90;;;;;;5050516;28;20052;-82
2023/08/01 02:37:35;;;;;;;9.15;2.90;;;15.30;99.90;;;;;;5017796;28;20033;-82
2023/08/01 02:40:08;;;;;;;8.18;2.85;;;15.20;99.90;;;;;;5017776;28;20060;-82
2023/08/01 02:42:34;;;;;;;7.95;2.50;;;15.20;99.90;;;;;;5017191;28;20502;-82
2023/08/01 02:45:01;;;;;;;8.80;2.72;;;15.20;99.90;;;;;;5049921;28;20045;-82
2023/08/01 02:47:28;;;;;;;8.65;2.83;;;15.10;99.90;;;;;;5034118;28;20045;-82
2023/08/01 02:49:58;;;;;;;9.57;3.15;;;15.10;99.90;;;;;;5034368;28;20048;-82
2023/08/01 02:52:24;;;;;;;12.02;3.05;;;15.10;99.90;;;;;;5050291;28;20529;-82
2023/08/01 02:54:51;;;;;;;9.50;2.75;;;15.10;99.90;;;;;;5017186;28;20037;-82
2023/08/01 02:57:18;;;;;;;9.68;3.25;;;15.10;99.90;;;;;;5017563;28;20048;-82
2023/08/01 02:59:44;;;;;;;7.78;2.60;;;15.00;99.90;;;;;;5017175;28;20049;-82
2023/08/01 03:02:11;;;;;;;7.53;2.75;;;15.00;99.90;;;;;;5049875;28;20111;-82
2023/08/01 03:04:38;;;;;;;10.30;3.08;;;15.00;99.90;;;;;;5033445;28;20044;-82
2023/08/01 03:07:04;;;;;;;11.90;3.22;;;14.90;99.90;;;;;;5017031;28;20394;-82
2023/08/01 03:09:32;;;;;;;9.48;2.47;;;14.90;99.90;;;;;;5049402;28;20531;-82
2023/08/01 03:11:59;;;;;;;9.52;2.88;;;14.90;99.90;;;;;;5049468;28;20041;-82
2023/08/01 03:14:26;;;;;;;8.63;2.97;;;14.90;99.90;;;;;;5050021;28;20048;-82
2023/08/01 03:16:53;;;;;;;7.80;2.90;;;14.90;99.90;;;;;;5049544;28;20037;-82
2023/08/01 03:19:19;;;;;;;7.25;2.70;;;14.90;99.90;;;;;;5017227;28;20406;-82
2023/08/01 03:21:46;;;;;;;9.18;2.70;;;14.90;99.90;;;;;;5016859;28;20115;-82
2023/08/01 03:24:13;;;;;;;9.65;2.90;;;14.90;99.90;;;;;;5033116;28;20053;-82
2023/08/01 03:26:39;;;;;;;7.40;2.72;;;14.80;99.90;;;;;;5017460;28;20037;-82
2023/08/01 03:29:06;;;;;;;8.30;2.75;;;14.90;99.90;;;;;;5017045;28;20049;-82
2023/08/01 03:31:33;;;;;;;10.25;3.22;;;14.90;99.90;;;;;;5017034;28;20124;-82
2023/08/01 03:34:00;;;;;;;10.07;3.33;;;15.00;99.90;;;;;;5032717;28;20044;-82
2023/08/01 03:36:26;;;;;;;11.40;3.40;;;15.00;99.90;;;;;;5016766;28;20037;-82
2023/08/01 03:38:53;;;;;;;7.50;3.50;;;15.00;99.90;;;;;;5016300;28;20037;-82
2023/08/01 03:41:20;;;;;;;9.95;3.40;;;15.00;99.90;;;;;;5016430;28;20103;-82
2023/08/01 03:43:47;;;;;;;10.13;3.28;;;15.00;99.90;;;;;;5016059;28;20052;-82
2023/08/01 03:46:13;;;;;;;10.10;3.67;;;15.00;99.90;;;;;;5016583;28;20037;-82
2023/08/01 03:48:40;;;;;;;14.40;4.07;;;15.00;99.90;;;;;;5016649;28;20528;-82
2023/08/01 03:51:07;;;;;;;9.52;3.28;;;15.00;99.90;;;;;;5016153;28;20060;-82
2023/08/01 03:53:34;;;;;;;11.65;3.92;;;15.10;99.90;;;;;;5019527;28;20041;-82
2023/08/01 03:56:00;;;;;;;8.48;3.30;;;15.10;99.90;;;;;;5022529;28;20700;-82
2023/08/01 03:58:27;;;;;;;9.57;3.58;;;15.10;99.90;;;;;;5023260;28;20532;-82
2023/08/01 04:00:54;;;;;;;11.60;3.90;;;15.10;99.90;;;;;;5022734;28;20124;-82
2023/08/01 04:03:21;;;;;;;11.45;3.90;;;15.20;99.90;;;;;;5022854;28;20179;-82
2023/08/01 04:05:48;;;;;;;14.68;3.88;;;15.20;99.90;;;;;;5038881;28;20562;-82
2023/08/01 04:08:14;;;;;;;11.80;4.50;;;15.20;99.90;;;;;;5023144;28;20132;-83
2023/08/01 04:10:41;;;;;;;11.07;4.22;;;15.30;99.90;;;;;;5023233;28;20048;-82
2023/08/01 04:13:08;;;;;;;9.30;3.83;;;15.20;99.90;;;;;;5022671;28;20502;-82
2023/08/01 04:15:35;;;;;;;10.80;3.83;;;15.30;99.90;;;;;;5022570;28;20135;-82
2023/08/01 04:18:01;;;;;;;11.85;3.83;;;15.30;99.90;;;;;;5022253;28;20473;-82
2023/08/01 04:20:28;;;;;;;12.02;4.00;;;15.20;99.90;;;;;;5022245;28;20471;-82
2023/08/01 04:22:55;;;;;;;9.45;3.90;;;15.30;99.90;;;;;;5038767;28;20049;-82
2023/08/01 04:25:23;;;;;;;9.88;3.63;;;15.30;99.90;;;;;;5023155;28;20480;-82
2023/08/01 04:27:50;;;;;;;10.40;3.30;;;15.30;99.90;;;;;;5023707;28;20048;-82
2023/08/01 04:30:17;;;;;;;9.35;3.10;;;15.30;99.90;;;;;;5022864;28;20037;-82
2023/08/01 04:32:44;;;;;;;8.15;2.97;;;15.30;99.90;;;;;;5055331;28;20060;-82
2023/08/01 04:35:10;;;;;;;12.00;3.17;;;15.20;99.90;;;;;;5038772;28;20796;-82
2023/08/01 04:37:37;;;;;;;5.50;2.92;;;15.20;99.90;;;;;;5039147;28;20482;-82
2023/08/01 04:40:04;;;;;;;7.78;3.45;;;15.20;99.90;;;;;;5022849;28;20077;-82
2023/08/01 04:42:31;;;;;;;9.90;3.15;;;15.30;99.90;;;;;;5055393;28;20037;-82
2023/08/01 04:44:58;;;;;;;11.75;3.60;;;15.20;99.90;;;;;;5038670;28;20506;-82
2023/08/01 04:47:25;;;;;;;8.52;3.10;;;15.20;99.90;;;;;;5023137;28;20111;-82
2023/08/01 04:49:51;;;;;;;9.25;3.05;;;15.20;99.90;;;;;;5071780;28;20091;-82
2023/08/01 04:52:18;;;;;;;8.85;3.30;;;15.20;99.90;;;;;;5022137;28;20145;-82
2023/08/01 04:54:45;;;;;;;8.07;3.40;;;15.20;99.90;;;;;;5039192;28;20509;-82
2023/08/01 04:57:12;;;;;;;9.90;3.40;;;15.30;99.90;;;;;;5039064;28;20033;-82
2023/08/01 04:59:38;;;;;;;9.88;3.35;;;15.30;99.90;;;;;;5022657;28;20038;-82
2023/08/01 05:02:05;;;;;;;11.55;3.50;;;15.30;99.90;;;;;;5022167;28;20049;-83
2023/08/01 05:04:32;;;;;;;7.28;2.70;;;15.30;99.90;;;;;;5020562;28;20042;-82
2023/08/01 05:06:59;;;;;;;5.65;2.63;;;15.40;99.90;;;;;;5035066;28;20770;-82
2023/08/01 05:09:25;;;;;;;9.38;3.22;;;15.40;99.90;;;;;;5035743;28;20049;-82
2023/08/01 05:11:52;;;;;;;11.70;3.47;;;15.40;99.90;;;;;;5035863;28;20034;-82
2023/08/01 05:14:19;;;;;;;12.20;3.25;;;15.40;99.90;;;;;;5051239;28;20053;-82
2023/08/01 05:16:46;;;;;;;9.32;3.63;;;15.40;99.90;;;;;;5019664;28;20436;-82
2023/08/01 05:19:12;;;;;;;10.07;3.42;;;15.40;99.90;;;;;;5019164;28;20044;-82
2023/08/01 05:21:39;;;;;;;8.63;3.03;;;15.30;99.90;;;;;;5019481;28;20081;-82
2023/08/01 05:24:06;;;;;;;9.73;2.90;;;15.30;99.90;;;;;;5018982;28;20045;-82
2023/08/01 05:26:32;;;;;;;12.13;3.08;;;15.30;99.90;;;;;;5019075;28;20037;-82
2023/08/01 05:28:59;;;;;;;7.07;2.42;;;15.30;99.90;;;;;;5018857;28;20033;-82
2023/08/01 05:31:26;;;;;;;14.73;2.42;;;15.30;99.90;;;;;;5051525;28;20041;-82
2023/08/01 05:33:52;;;;;;;6.68;2.03;;;15.20;99.90;;;;;;5051365;28;20124;-83
2023/08/01 05:36:19;;;;;;;8.35;2.10;;;15.20;99.90;;;;;;5051417;28;20041;-82
2023/08/01 05:38:46;;;;;;;8.38;2.03;;;15.20;99.90;;;;;;5051619;28;20080;-82
2023/08/01 05:41:13;;;;;;;6.93;1.83;;;15.20;99.90;;;;;;5050892;28;20033;-82
2023/08/01 05:43:40;;;;;;;7.35;2.10;;;15.30;99.90;;;;;;5019038;28;20034;-83
2023/08/01 05:46:06;;;;;;;8.50;2.25;;;15.30;99.90;;;;;;5018619;28;20052;-82
2023/08/01 05:48:33;;;;;;;6.40;1.85;;;15.40;99.90;;;;;;5018796;28;20033;-82
2023/08/01 05:51:00;;;;;;;6.75;2.20;;;15.50;99.90;;;;;;5018651;28;20510;-83
2023/08/01 05:53:27;;;;;;;7.05;1.73;;;15.50;99.90;;;;;;5018389;28;20042;-82
2023/08/01 05:55:53;;;;;;;6.63;1.90;;;15.60;99.90;;;;;;5018591;28;20041;-82
2023/08/01 05:58:20;;;;;;;6.93;1.65;;;15.60;99.90;;;;;;5018475;28;20041;-82
2023/08/01 06:00:47;;;;;;;3.53;1.50;;;15.60;99.90;;;;;;5018802;28;20100;-82
2023/08/01 06:03:14;;;;;;;3.63;1.50;;;15.60;99.90;;;;;;5018504;28;20565;-82
2023/08/01 06:05:40;;;;;;;9.00;1.42;;;15.70;99.90;;;;;;5035015;28;20045;-82
2023/08/01 06:08:08;;;;;;;6.20;1.65;;;15.70;99.90;;;;;;5018354;28;20084;-82
2023/08/01 06:10:36;;;;;;;4.35;1.50;;;15.60;99.90;;;;;;5034575;28;20049;-82
2023/08/01 06:13:02;;;;;;;5.40;1.42;;;15.60;99.90;;;;;;5014537;28;20498;-82
2023/08/01 06:15:29;;;;;;;6.82;1.60;;;15.50;99.90;;;;;;5014564;28;20046;-82
2023/08/01 06:17:56;;;;;;;8.20;1.70;;;15.50;99.90;;;;;;5030861;28;20066;-82
2023/08/01 06:20:22;;;;;;;7.32;1.55;;;15.50;99.90;;;;;;5014380;28;20042;-82
2023/08/01 06:22:49;;;;;;;3.80;1.55;;;15.60;99.90;;;;;;5015079;28;20038;-82
2023/08/01 06:25:16;;;;;;;5.28;1.50;;;15.60;99.90;;;;;;5030492;28;20050;-82
2023/08/01 06:27:43;;;;;;;3.35;1.40;;;15.70;99.90;;;;;;5030808;28;20069;-82
2023/08/01 06:30:10;;;;;;;4.25;1.60;;;15.70;99.90;;;;;;5030199;28;20501;-82
2023/08/01 06:32:37;;;;;;;4.43;1.80;;;15.80;99.90;;;;;;5030635;28;20073;-82
2023/08/01 06:35:04;;;;;;;7.07;1.63;;;15.80;99.90;;;;;;5014439;28;20520;-82
2023/08/01 06:37:30;;;;;;;5.22;1.60;;;15.90;99.90;;;;;;5014386;28;20483;-82
2023/08/01 06:39:59;;;;;;;7.60;1.50;;;16.00;99.90;;;;;;5014203;28;20052;-83
2023/08/01 06:42:26;;;;;;;3.10;1.60;;;16.00;99.90;;;;;;5030139;28;20057;-82
2023/08/01 06:44:52;;;;;;;4.93;1.60;;;16.10;99.90;;;;;;5014536;28;20033;-82
2023/08/01 06:47:19;;;;;;;5.93;1.42;;;16.20;99.90;;;;;;5014072;28;20100;-82
2023/08/01 06:49:46;;;;;;;5.53;1.70;;;16.20;99.90;;;;;;5030025;28;20068;-82
2023/08/01 06:52:12;;;;;;;7.15;1.65;;;16.20;99.90;;;;;;5030386;28;20045;-82
2023/08/01 06:54:39;;;;;;;5.43;1.50;;;16.10;99.90;;;;;;5013742;28;20120;-82
2023/08/01 06:57:07;;;;;;;4.70;1.40;;;16.00;99.90;;;;;;5014051;28;20037;-82
2023/08/01 06:59:33;;;;;;;6.03;1.85;;;15.90;99.90;;;;;;5013629;28;20092;-83
2023/08/01 07:02:01;;;;;;;4.32;1.50;;;15.90;99.90;;;;;;5030556;28;20548;-83
2023/08/01 07:04:28;;;;;;;4.82;1.73;;;15.80;99.90;;;;;;5014285;28;20046;-83
2023/08/01 07:06:54;;;;;;;5.95;1.90;;;15.80;99.90;;;;;;5032769;28;20576;-83
2023/08/01 07:09:21;;;;;;;5.63;1.73;;;15.60;99.90;;;;;;5029829;28;20042;-82
2023/08/01 07:11:48;;;;;;;7.97;1.95;;;15.80;99.90;;;;;;5013970;28;20041;-83
2023/08/01 07:14:15;;;;;;;4.28;1.58;;;15.80;99.90;;;;;;5010232;28;20042;-82
2023/08/01 07:16:41;;;;;;;6.13;1.80;;;15.80;99.90;;;;;;5026643;28;20038;-83
2023/08/01 07:19:08;;;;;;;4.65;1.70;;;15.80;99.90;;;;;;5026440;28;20042;-82
2023/08/01 07:21:35;;;;;;;5.38;2.05;;;15.80;99.90;;;;;;5026081;28;20434;-82
2023/08/01 07:24:02;;;;;;;6.18;1.83;;;15.90;99.90;;;;;;5026749;28;20482;-83
2023/08/01 07:26:29;;;;;;;3.88;1.90;;;16.00;99.90;;;;;;5026084;28;20095;-82
2023/08/01 07:28:56;;;;;;;6.35;2.05;;;16.00;99.90;;;;;;5009756;28;20443;-82
2023/08/01 07:31:23;;;;;;;6.05;1.88;;;16.20;99.90;;;;;;5009789;28;20042;-83
2023/08/01 07:33:49;;;;;;;5.03;2.00;;;16.20;99.90;;;;;;5010129;28;20126;-82
2023/08/01 07:36:16;;;;;;;5.93;1.73;;;16.40;99.90;;;;;;5024133;28;20038;-82
2023/08/01 07:38:43;;;;;;;7.00;1.90;;;16.40;99.90;;;;;;5029842;28;20131;-82
2023/08/01 07:41:10;;;;;;;4.07;1.65;;;16.50;99.90;;;;;;5045914;28;20636;-83
2023/08/01 07:43:36;;;;;;;5.80;1.80;;;16.50;99.90;;;;;;5029618;28;20120;-83
2023/08/01 07:46:03;;;;;;;7.30;1.70;;;16.50;99.90;;;;;;5029705;28;20125;-82
2023/08/01 07:48:30;;;;;;;4.35;1.70;;;16.40;99.90;;;;;;5029489;28;20042;-82
2023/08/01 07:50:57;;;;;;;5.13;1.65;;;16.40;99.90;;;;;;5045951;28;20042;-82
2023/08/01 07:53:23;;;;;;;4.78;1.58;;;16.40;99.90;;;;;;5029620;28;20042;-82
2023/08/01 07:55:52;;;;;;;9.50;1.75;;;16.40;99.90;;;;;;5045781;28;20041;-82
2023/08/01 07:58:19;;;;;;;4.75;1.80;;;16.50;99.90;;;;;;5045898;28;20038;-82
2023/08/01 08:00:48;;;;;;;5.60;1.50;;;16.50;99.90;;;;;;5045926;28;20045;-83
2023/08/01 08:03:15;;;;;;;3.28;1.40;;;16.60;99.90;;;;;;5029377;28;20490;-82
2023/08/01 08:05:42;;;;;;;5.45;1.50;;;16.40;99.90;;;;;;5045259;28;20105;-82
2023/08/01 08:08:09;;;;;;;4.32;1.30;;;16.40;99.90;;;;;;5045624;28;20048;-82
2023/08/01 08:10:35;;;;;;;3.95;1.30;;;16.50;99.90;;;;;;5029248;28;20050;-82
2023/08/01 08:13:02;;;;;;;4.20;1.25;;;16.50;99.90;;;;;;5048582;28;20517;-82
2023/08/01 08:15:33;;;;;;;6.22;1.40;;;16.60;99.90;;;;;;5049057;28;20059;-82
2023/08/01 08:18:04;;;;;;;4.43;1.58;;;16.50;99.90;;;;;;5049184;28;20136;-83
2023/08/01 08:20:31;;;;;;;5.95;1.33;;;16.40;99.90;;;;;;5049189;28;20084;-82
2023/08/01 08:22:58;;;;;;;4.55;1.30;;;16.40;99.90;;;;;;5032930;28;20131;-82
2023/08/01 08:25:28;;;;;;;4.07;1.20;;;16.40;99.90;;;;;;5048931;28;20139;-82
2023/08/01 08:27:55;;;;;;;5.95;1.48;;;16.30;99.90;;;;;;5048350;28;20045;-83
2023/08/01 08:30:21;;;;;;;4.30;1.25;;;16.20;99.90;;;;;;5048871;28;20133;-82
2023/08/01 08:32:49;;;;;;;6.25;1.15;;;16.20;99.90;;;;;;5048692;28;20037;-83
2023/08/01 08:35:16;;;;;;;4.68;1.45;;;16.10;99.90;;;;;;5048802;28;20475;-83
2023/08/01 08:37:43;;;;;;;4.72;1.40;;;16.00;99.90;;;;;;5032467;28;20041;-83
2023/08/01 08:40:12;;;;;;;3.05;1.13;;;16.00;99.90;;;;;;5033752;28;20096;-83
2023/08/01 08:42:40;;;;;;;6.25;1.30;;;15.90;99.90;;;;;;5052634;28;20081;-83
2023/08/01 08:45:07;;;;;;;3.95;1.15;;;16.00;99.90;;;;;;5052220;28;20383;-83
2023/08/01 08:47:42;;;;;;;6.10;1.38;;;15.90;99.90;;;;;;5052043;28;20140;-83
2023/08/01 08:50:10;;;;;;;5.97;1.50;;;16.00;99.90;;;;;;5052411;28;20103;-83
2023/08/01 08:52:37;;;;;;;7.32;1.55;;;16.20;99.90;;;;;;5035878;28;20033;-83
2023/08/01 08:55:05;;;;;;;4.20;1.25;;;16.40;99.90;;;;;;5052309;28;20140;-83
2023/08/01 08:57:33;;;;;;;4.97;1.40;;;16.60;99.90;;;;;;5052218;28;20044;-82
2023/08/01 09:00:04;;;;;;;3.28;1.30;;;16.60;99.90;;;;;;5052156;28;20041;-83
2023/08/01 09:02:32;;;;;;;3.55;1.05;;;16.60;99.90;;;;;;5051849;28;20049;-83
2023/08/01 09:04:59;;;;;;;3.40;1.17;;;16.60;99.90;;;;;;5053333;28;20077;-87
2023/08/01 09:07:33;;;;;;;3.88;0.98;;;16.50;99.90;;;;;;5052879;28;20065;-87
2023/08/01 09:10:00;;;;;;;5.05;1.15;;;16.50;99.90;;;;;;5052692;28;20458;-86
2023/08/01 09:12:26;;;;;;;4.32;1.15;;;16.40;99.90;;;;;;5036368;28;20156;-87
2023/08/01 09:14:56;;;;;;;4.07;1.10;;;16.50;99.90;;;;;;5020432;28;20488;-86
2023/08/01 09:17:23;;;;;;;5.90;1.35;;;16.50;99.90;;;;;;5053290;28;20049;-87
2023/08/01 09:19:56;;;;;;;3.88;1.20;;;16.60;99.90;;;;;;5052534;28;20049;-86
2023/08/01 09:22:23;;;;;;;4.78;1.63;;;16.80;99.90;;;;;;5052657;28;20042;-86
2023/08/01 09:24:53;;;;;;;4.03;1.33;;;16.80;99.90;;;;;;5020020;28;20404;-86
2023/08/01 09:27:22;;;;;;;2.90;1.15;;;16.80;99.90;;;;;;5036132;28;20042;-86
2023/08/01 09:29:49;;;;;;;5.25;1.20;;;16.70;99.90;;;;;;5052436;28;20526;-86
2023/08/01 09:32:15;;;;;;;3.78;1.10;;;16.60;99.90;;;;;;5020030;28;20073;-86
2023/08/01 09:34:43;;;;;;;2.40;1.17;;;16.50;99.90;;;;;;5019625;28;20128;-86
2023/08/01 09:37:09;;;;;;;3.58;1.40;;;16.50;99.90;;;;;;5036491;28;20152;-86
2023/08/01 09:39:36;;;;;;;6.80;1.38;;;16.60;99.90;;;;;;5019958;28;20133;-86
2023/08/01 09:42:03;;;;;;;5.47;1.50;;;16.70;99.90;;;;;;5036135;28;20052;-86
2023/08/01 09:44:30;;;;;;;3.65;1.20;;;16.90;99.90;;;;;;5035900;28;20064;-87
2023/08/01 09:47:02;;;;;;;3.20;1.05;;;16.80;99.90;;;;;;5019390;28;20041;-87
2023/08/01 09:49:30;;;;;;;7.03;1.35;;;16.90;99.90;;;;;;5052131;28;20045;-86
2023/08/01 09:51:58;;;;;;;5.63;1.17;;;17.00;99.90;;;;;;5035292;28;20516;-86
2023/08/01 09:54:25;;;;;;;3.47;1.02;;;17.00;99.90;;;;;;5052342;28;20048;-86
2023/08/01 09:56:55;;;;;;;5.10;1.20;;;16.90;99.90;;;;;;5035293;28;20038;-88
2023/08/01 09:59:24;;;;;;;3.95;1.40;;;17.00;99.90;;;;;;5035563;28;20519;-86
2023/08/01 10:01:52;;;;;;;4.57;1.38;;;17.00;99.90;;;;;;5018932;28;20511;-86
2023/08/01 10:04:31;;;;;;;5.40;1.17;;;17.10;99.90;;;;;;5035262;28;20048;-86
2023/08/01 10:07:06;;;;;;;4.30;1.23;;;17.20;99.90;;;;;;5034938;28;20497;-86
2023/08/01 10:09:35;;;;;;;3.28;1.17;;;17.30;99.90;;;;;;5035026;28;20127;-86
2023/08/01 10:12:02;;;;;;;2.45;0.95;;;17.40;99.90;;;;;;5019035;28;20486;-87
2023/08/01 10:14:30;;;;;;;3.05;1.10;;;17.20;99.90;;;;;;5032084;28;20518;-87
2023/08/01 10:16:57;;;;;;;3.53;0.90;;;17.10;99.90;;;;;;4999401;28;20046;-86
2023/08/01 10:19:26;;;;;;;2.92;0.90;;;17.00;99.90;;;;;;5032221;28;20056;-86
2023/08/01 10:21:54;;;;;;;2.67;0.90;;;17.00;99.90;;;;;;5015692;28;20041;-86
2023/08/01 10:24:22;;;;;;;2.78;1.10;;;16.80;99.90;;;;;;5015693;28;20482;-86
2023/08/01 10:26:49;;;;;;;3.58;0.90;;;16.80;99.90;;;;;;5031606;28;20045;-86
2023/08/01 10:29:15;;;;;;;3.42;1.05;;;16.80;99.90;;;;;;4999391;28;20056;-86
2023/08/01 10:31:53;;;;;;;5.72;1.20;;;16.90;99.90;;;;;;5031221;28;20038;-84
2023/08/01 10:34:23;;;;;;;4.47;1.40;;;17.00;99.90;;;;;;5015830;28;20046;-86
2023/08/01 10:36:57;;;;;;;6.47;1.35;;;17.00;99.90;;;;;;5017803;28;20041;-86
2023/08/01 10:39:26;;;;;;;3.08;1.10;;;17.30;99.90;;;;;;5015320;28;20088;-87
2023/08/01 10:42:05;;;;;;;4.78;1.30;;;17.50;99.90;;;;;;5031312;28;20064;-86
2023/08/01 10:44:34;;;;;;;4.05;1.33;;;17.60;99.90;;;;;;5031259;28;20045;-86
2023/08/01 10:47:03;;;;;;;3.10;1.10;;;17.60;99.90;;;;;;5031010;28;20049;-86
2023/08/01 10:49:37;;;;;;;2.40;1.00;;;17.70;99.90;;;;;;5031117;28;20037;-86
2023/08/01 10:52:17;;;;;;;3.28;1.10;;;17.40;99.90;;;;;;5031102;28;20044;-87
2023/08/01 10:54:45;;;;;;;5.05;1.40;;;17.40;99.90;;;;;;5031284;28;20065;-86
2023/08/01 10:57:19;;;;;;;5.72;1.33;;;17.30;99.90;;;;;;5031234;28;20128;-86
2023/08/01 10:59:47;;;;;;;5.30;1.30;;;17.20;99.90;;;;;;5014845;28;20077;-84
2023/08/01 11:02:20;;;;;;;2.90;1.23;;;17.10;99.90;;;;;;5014878;28;20060;-86
2023/08/01 11:05:06;;;;;;;6.38;1.65;;;17.00;99.90;;;;;;5030931;28;20513;-87
2023/08/01 11:07:34;;;;;;;4.00;1.40;;;16.90;99.90;;;;;;5015228;28;20048;-86
2023/08/01 11:10:12;;;;;;;5.90;1.30;;;16.90;99.90;;;;;;5030757;28;20050;-86
2023/08/01 11:12:43;;;;;;;4.45;1.77;;;16.70;99.90;;;;;;5035315;28;20410;-87
2023/08/01 11:15:12;;;;;;;6.43;1.60;;;16.60;99.90;;;;;;5050672;28;20038;-86
2023/08/01 11:17:47;;;;;;;4.25;1.48;;;16.50;99.90;;;;;;5034650;28;20068;-87
2023/08/01 11:20:14;;;;;;;4.30;1.30;;;16.50;99.90;;;;;;5050432;28;20037;-86
2023/08/01 11:23:04;;;;;;;4.70;1.50;;;16.60;99.90;;;;;;5050443;28;20497;-87
2023/08/01 11:25:43;;;;;;;4.88;1.85;;;16.90;99.90;;;;;;5034241;28;20037;-87
2023/08/01 11:28:15;;;;;;;6.60;1.80;;;17.30;99.90;;;;;;5050708;28;20072;-87
2023/08/01 11:30:42;;;;;;;6.30;2.05;;;17.70;99.90;;;;;;5050403;28;20072;-86
2023/08/01 11:33:16;;;;;;;7.05;2.20;;;17.90;99.90;;;;;;5050312;28;20037;-86
2023/08/01 11:35:43;;;;;;;13.20;2.50;;;18.00;99.90;;;;;;5050620;28;20092;-87
2023/08/01 11:38:10;;;;;;;6.85;2.03;;;17.80;99.90;;;;;;5033648;28;20083;-88
2023/08/01 11:40:38;;;;;;;5.03;1.92;;;17.60;99.90;;;;;;5050436;28;20045;-87
2023/08/01 11:43:04;;;;;;;5.97;1.70;;;17.70;99.90;;;;;;5050629;28;20081;-88
2023/08/01 11:45:31;;;;;;;6.25;1.88;;;17.50;99.90;;;;;;5051165;28;20087;-87
2023/08/01 11:47:58;;;;;;;4.25;1.63;;;17.60;99.90;;;;;;5034046;28;20053;-87
2023/08/01 11:50:26;;;;;;;4.20;1.60;;;17.60;99.90;;;;;;5050688;28;20048;-88
2023/08/01 11:52:53;;;;;;;5.72;1.55;;;17.40;99.90;;;;;;5050754;28;20041;-88
2023/08/01 11:55:27;;;;;;;4.70;1.70;;;17.40;99.90;;;;;;5049941;28;20033;-87
2023/08/01 11:57:58;;;;;;;3.58;1.33;;;17.50;99.90;;;;;;5050771;28;20131;-88
2023/08/01 12:00:29;;;;;;;6.88;1.70;;;17.70;99.90;;;;;;5034506;28;20037;-87
2023/08/01 12:03:05;;;;;;;3.58;1.40;;;17.80;99.90;;;;;;5050374;28;20241;-87
2023/08/01 12:05:32;;;;;;;5.63;1.40;;;17.90;99.90;;;;;;5050466;28;20037;-88
2023/08/01 12:08:13;;;;;;;3.17;1.17;;;18.10;99.90;;;;;;5050221;28;20038;-87
2023/08/01 12:10:45;;;;;;;5.78;1.05;;;18.20;99.90;;;;;;5050002;28;20401;-87
2023/08/01 12:13:22;;;;;;;3.78;0.98;;;18.10;99.90;;;;;;5049668;28;20054;-86
2023/08/01 12:15:54;;;;;;;4.93;1.17;;;18.00;99.90;;;;;;5053667;28;20516;-87
2023/08/01 12:18:29;;;;;;;3.33;1.08;;;18.00;99.90;;;;;;5053740;28;20494;-87
2023/08/01 12:20:56;;;;;;;;;;;17.80;99.90;;;;;;5054376;28;20056;-86
2023/08/01 12:23:22;;;;;;;4.85;1.10;;;17.70;99.90;;;;;;5053906;28;19921;-86
2023/08/01 12:25:49;;;;;;;8.30;1.52;;;17.80;99.90;;;;;;5053969;28;20041;-87
2023/08/01 12:28:16;;;;;;;2.90;1.00;;;17.90;99.90;;;;;;5053683;28;20497;-86
2023/08/01 12:30:44;;;;;;;5.32;1.20;;;17.90;99.90;;;;;;5037360;28;20038;-87
2023/08/01 12:33:11;;;;;;;4.75;1.30;;;18.00;99.90;;;;;;5053278;28;20037;-86
2023/08/01 12:35:41;;;;;;;4.72;1.30;;;17.90;99.90;;;;;;5037078;28;20551;-86
2023/08/01 12:38:09;;;;;;;4.55;1.23;;;18.00;99.90;;;;;;5052935;28;20494;-85
2023/08/01 12:40:35;;;;;;;5.25;1.30;;;18.10;99.90;;;;;;5053429;28;20084;-86
2023/08/01 12:43:02;;;;;;;3.58;1.30;;;18.20;99.90;;;;;;5052751;28;20099;-86
2023/08/01 12:45:29;;;;;;;4.68;1.30;;;18.30;99.90;;;;;;5036682;28;20037;-86
2023/08/01 12:47:56;;;;;;;5.22;1.13;;;18.50;99.90;;;;;;5036854;28;20099;-86